PWSweather.com
Personal Weather Stations
Station Observations
MENWDWX1
Menstrie, ScotlandGB

MenstrieScotlandGB

Lat: 56.148322, Lon: -3.85483

Elevation: 62

Station Type: Davis Vantage Pro 2

High Low Average
Temperature 69.0°F20.6°C 58.6°F14.8°C 62.8°F17.1°C
Dew Point 57.8°F14.3°C 50.9°F10.5°C 53.7°F12.1°C
Winds 8.1 mph 13.0 kmh Calm Calm 3.0 mph ESE4.8 kmh ESE
Wind Gusts 11.5 mph18.5 kmh -- 5.0 mph8.0 kmh
Humidity 76% 66% 72%
Pressure 30.20 in1022.7 mb 30.16 in1021.3 mb -
Precipitation 0.00 in0.0 mm - -
Hour Temp Dew Point Humidity Winds Wind Gusts Pressure Precip Precip Rate Daily Precip Total
12:00 AM 59.6°F15.3°C 52.0°F11.1°C 76% 3.5 mph ESE5.6 kmh ESE 3.5 mph5.6 kmh 30.20 in1022.7 mb - 0.00 in0.0 mm 0.00 in0.0 mm
12:05 AM 59.5°F15.3°C 51.9°F11.1°C 76% 4.6 mph SE7.4 kmh SE 4.6 mph7.4 kmh 30.20 in1022.7 mb - 0.00 in0.0 mm 0.00 in0.0 mm
12:10 AM 59.4°F15.2°C 51.8°F11.0°C 76% 3.5 mph ESE5.6 kmh ESE 3.5 mph5.6 kmh 30.20 in1022.7 mb - 0.00 in0.0 mm 0.00 in0.0 mm
12:15 AM 59.3°F15.2°C 51.7°F10.9°C 76% 2.3 mph SE3.7 kmh SE 4.6 mph7.4 kmh 30.20 in1022.7 mb - 0.00 in0.0 mm 0.00 in0.0 mm
12:20 AM 59.3°F15.2°C 51.7°F10.9°C 76% 2.3 mph ESE3.7 kmh ESE 3.5 mph5.6 kmh 30.20 in1022.7 mb - 0.00 in0.0 mm 0.00 in0.0 mm
12:25 AM 59.3°F15.2°C 51.7°F10.9°C 76% 2.3 mph SE3.7 kmh SE 3.5 mph5.6 kmh 30.20 in1022.7 mb - 0.00 in0.0 mm 0.00 in0.0 mm
12:30 AM 59.3°F15.2°C 51.7°F10.9°C 76% 2.3 mph SE3.7 kmh SE 3.5 mph5.6 kmh 30.20 in1022.7 mb - 0.00 in0.0 mm 0.00 in0.0 mm
12:35 AM 59.3°F15.2°C 51.7°F10.9°C 76% 2.3 mph SE3.7 kmh SE 3.5 mph5.6 kmh 30.20 in1022.7 mb - 0.00 in0.0 mm 0.00 in0.0 mm
12:40 AM 59.3°F15.2°C 51.7°F10.9°C 76% 2.3 mph SE3.7 kmh SE 2.3 mph3.7 kmh 30.20 in1022.7 mb - 0.00 in0.0 mm 0.00 in0.0 mm
12:45 AM 59.3°F15.2°C 51.7°F10.9°C 76% 3.5 mph E5.6 kmh E 3.5 mph5.6 kmh 30.20 in1022.7 mb - 0.00 in0.0 mm 0.00 in0.0 mm
12:50 AM 59.3°F15.2°C 51.7°F10.9°C 76% 2.3 mph E3.7 kmh E 3.5 mph5.6 kmh 30.20 in1022.7 mb - 0.00 in0.0 mm 0.00 in0.0 mm
12:55 AM 59.3°F15.2°C 51.7°F10.9°C 76% 2.3 mph ESE3.7 kmh ESE 2.3 mph3.7 kmh 30.20 in1022.7 mb - 0.00 in0.0 mm 0.00 in0.0 mm
01:00 AM 59.3°F15.2°C 51.7°F10.9°C 76% 2.3 mph SE3.7 kmh SE 3.5 mph5.6 kmh 30.20 in1022.7 mb - 0.00 in0.0 mm 0.00 in0.0 mm
01:05 AM 59.3°F15.2°C 51.7°F10.9°C 76% 2.3 mph SSE3.7 kmh SSE 2.3 mph3.7 kmh 30.20 in1022.7 mb - 0.00 in0.0 mm 0.00 in0.0 mm
01:10 AM 59.3°F15.2°C 51.7°F10.9°C 76% 2.3 mph SE3.7 kmh SE 3.5 mph5.6 kmh 30.20 in1022.7 mb - 0.00 in0.0 mm 0.00 in0.0 mm
01:15 AM 59.2°F15.1°C 51.7°F10.9°C 76% 2.3 mph SSE3.7 kmh SSE 3.5 mph5.6 kmh 30.20 in1022.7 mb - 0.00 in0.0 mm 0.00 in0.0 mm
01:20 AM 59.2°F15.1°C 51.6°F10.9°C 76% Calm Calm -- 30.20 in1022.7 mb - 0.00 in0.0 mm 0.00 in0.0 mm
01:25 AM 59.1°F15.1°C 51.6°F10.9°C 76% 1.2 mph SSE1.9 kmh SSE 3.5 mph5.6 kmh 30.20 in1022.7 mb - 0.00 in0.0 mm 0.00 in0.0 mm
01:30 AM 59.1°F15.1°C 51.5°F10.8°C 76% 2.3 mph SE3.7 kmh SE 3.5 mph5.6 kmh 30.20 in1022.7 mb - 0.00 in0.0 mm 0.00 in0.0 mm
01:35 AM 59.1°F15.1°C 51.5°F10.8°C 76% 2.3 mph SE3.7 kmh SE 4.6 mph7.4 kmh 30.20 in1022.7 mb - 0.00 in0.0 mm 0.00 in0.0 mm
01:40 AM 59.0°F15.0°C 51.4°F10.8°C 76% 3.5 mph ESE5.6 kmh ESE 3.5 mph5.6 kmh 30.20 in1022.7 mb - 0.00 in0.0 mm 0.00 in0.0 mm
01:45 AM 58.9°F14.9°C 51.4°F10.8°C 76% 2.3 mph E3.7 kmh E 4.6 mph7.4 kmh 30.20 in1022.7 mb - 0.00 in0.0 mm 0.00 in0.0 mm
01:50 AM 58.9°F14.9°C 51.3°F10.7°C 76% 2.3 mph SE3.7 kmh SE 2.3 mph3.7 kmh 30.20 in1022.7 mb - 0.00 in0.0 mm 0.00 in0.0 mm
01:55 AM 58.9°F14.9°C 51.4°F10.8°C 76% 3.5 mph E5.6 kmh E 3.5 mph5.6 kmh 30.20 in1022.7 mb - 0.00 in0.0 mm 0.00 in0.0 mm
02:00 AM 58.9°F14.9°C 51.3°F10.7°C 76% 4.6 mph ESE7.4 kmh ESE 5.8 mph9.3 kmh 30.20 in1022.7 mb - 0.00 in0.0 mm 0.00 in0.0 mm
02:05 AM 58.9°F14.9°C 51.3°F10.7°C 76% 1.2 mph ESE1.9 kmh ESE 3.5 mph5.6 kmh 30.19 in1022.4 mb - 0.00 in0.0 mm 0.00 in0.0 mm
02:10 AM 58.9°F14.9°C 51.3°F10.7°C 76% 2.3 mph ESE3.7 kmh ESE 3.5 mph5.6 kmh 30.20 in1022.7 mb - 0.00 in0.0 mm 0.00 in0.0 mm
02:15 AM 58.9°F14.9°C 51.3°F10.7°C 76% 3.5 mph E5.6 kmh E 5.8 mph9.3 kmh 30.19 in1022.4 mb - 0.00 in0.0 mm 0.00 in0.0 mm
02:20 AM 58.9°F14.9°C 51.3°F10.7°C 76% 3.5 mph E5.6 kmh E 3.5 mph5.6 kmh 30.19 in1022.4 mb - 0.00 in0.0 mm 0.00 in0.0 mm
02:25 AM 58.8°F14.9°C 51.2°F10.7°C 76% 2.3 mph NE3.7 kmh NE 3.5 mph5.6 kmh 30.19 in1022.4 mb - 0.00 in0.0 mm 0.00 in0.0 mm
02:30 AM 58.7°F14.8°C 51.2°F10.7°C 76% 3.5 mph E5.6 kmh E 5.8 mph9.3 kmh 30.19 in1022.4 mb - 0.00 in0.0 mm 0.00 in0.0 mm
02:35 AM 58.6°F14.8°C 51.1°F10.6°C 76% 3.5 mph E5.6 kmh E 3.5 mph5.6 kmh 30.19 in1022.4 mb - 0.00 in0.0 mm 0.00 in0.0 mm
02:40 AM 58.6°F14.8°C 51.1°F10.6°C 76% 3.5 mph E5.6 kmh E 3.5 mph5.6 kmh 30.19 in1022.4 mb - 0.00 in0.0 mm 0.00 in0.0 mm
02:45 AM 58.7°F14.8°C 51.2°F10.7°C 76% 3.5 mph ESE5.6 kmh ESE 3.5 mph5.6 kmh 30.19 in1022.4 mb - 0.00 in0.0 mm 0.00 in0.0 mm
02:50 AM 58.8°F14.9°C 51.2°F10.7°C 76% 3.5 mph E5.6 kmh E 3.5 mph5.6 kmh 30.19 in1022.4 mb - 0.00 in0.0 mm 0.00 in0.0 mm
02:55 AM 58.8°F14.9°C 51.2°F10.7°C 76% 3.5 mph SE5.6 kmh SE 4.6 mph7.4 kmh 30.19 in1022.4 mb - 0.00 in0.0 mm 0.00 in0.0 mm
03:00 AM 58.9°F14.9°C 51.3°F10.7°C 76% 2.3 mph ESE3.7 kmh ESE 3.5 mph5.6 kmh 30.19 in1022.4 mb - 0.00 in0.0 mm 0.00 in0.0 mm
03:05 AM 58.9°F14.9°C 51.3°F10.7°C 76% 4.6 mph E7.4 kmh E 5.8 mph9.3 kmh 30.19 in1022.4 mb - 0.00 in0.0 mm 0.00 in0.0 mm
03:10 AM 58.8°F14.9°C 51.2°F10.7°C 76% 3.5 mph E5.6 kmh E 4.6 mph7.4 kmh 30.19 in1022.4 mb - 0.00 in0.0 mm 0.00 in0.0 mm
03:15 AM 58.8°F14.9°C 51.2°F10.7°C 76% 2.3 mph E3.7 kmh E 3.5 mph5.6 kmh 30.19 in1022.4 mb - 0.00 in0.0 mm 0.00 in0.0 mm
03:20 AM 58.8°F14.9°C 51.2°F10.7°C 76% 2.3 mph E3.7 kmh E 3.5 mph5.6 kmh 30.19 in1022.4 mb - 0.00 in0.0 mm 0.00 in0.0 mm
03:25 AM 58.8°F14.9°C 51.2°F10.7°C 76% 2.3 mph E3.7 kmh E 3.5 mph5.6 kmh 30.19 in1022.4 mb - 0.00 in0.0 mm 0.00 in0.0 mm
03:30 AM 58.8°F14.9°C 51.3°F10.7°C 76% 2.3 mph SE3.7 kmh SE 3.5 mph5.6 kmh 30.19 in1022.4 mb - 0.00 in0.0 mm 0.00 in0.0 mm
03:35 AM 58.9°F14.9°C 51.3°F10.7°C 76% 3.5 mph E5.6 kmh E 3.5 mph5.6 kmh 30.19 in1022.4 mb - 0.00 in0.0 mm 0.00 in0.0 mm
03:40 AM 58.8°F14.9°C 51.2°F10.7°C 76% 2.3 mph E3.7 kmh E 3.5 mph5.6 kmh 30.19 in1022.4 mb - 0.00 in0.0 mm 0.00 in0.0 mm
03:45 AM 58.7°F14.8°C 51.2°F10.7°C 76% 2.3 mph ESE3.7 kmh ESE 3.5 mph5.6 kmh 30.19 in1022.4 mb - 0.00 in0.0 mm 0.00 in0.0 mm
03:50 AM 58.7°F14.8°C 51.2°F10.7°C 76% 2.3 mph ESE3.7 kmh ESE 3.5 mph5.6 kmh 30.19 in1022.4 mb - 0.00 in0.0 mm 0.00 in0.0 mm
03:55 AM 58.8°F14.9°C 51.2°F10.7°C 76% 2.3 mph ESE3.7 kmh ESE 3.5 mph5.6 kmh 30.19 in1022.4 mb - 0.00 in0.0 mm 0.00 in0.0 mm
04:00 AM 58.8°F14.9°C 51.3°F10.7°C 76% 2.3 mph SE3.7 kmh SE 3.5 mph5.6 kmh 30.19 in1022.4 mb - 0.00 in0.0 mm 0.00 in0.0 mm
04:05 AM 58.8°F14.9°C 51.3°F10.7°C 76% 2.3 mph E3.7 kmh E 3.5 mph5.6 kmh 30.19 in1022.4 mb - 0.00 in0.0 mm 0.00 in0.0 mm
04:10 AM 58.8°F14.9°C 50.9°F10.5°C 75% 3.5 mph SE5.6 kmh SE 4.6 mph7.4 kmh 30.19 in1022.4 mb - 0.00 in0.0 mm 0.00 in0.0 mm
04:15 AM 58.8°F14.9°C 50.9°F10.5°C 75% 2.3 mph SE3.7 kmh SE 3.5 mph5.6 kmh 30.19 in1022.4 mb - 0.00 in0.0 mm 0.00 in0.0 mm
04:20 AM 58.9°F14.9°C 51.0°F10.6°C 75% 1.2 mph SE1.9 kmh SE 2.3 mph3.7 kmh 30.19 in1022.4 mb - 0.00 in0.0 mm 0.00 in0.0 mm
04:25 AM 59.0°F15.0°C 51.1°F10.6°C 75% 3.5 mph SE5.6 kmh SE 3.5 mph5.6 kmh 30.19 in1022.4 mb - 0.00 in0.0 mm 0.00 in0.0 mm
04:30 AM 59.0°F15.0°C 51.1°F10.6°C 75% 2.3 mph ESE3.7 kmh ESE 3.5 mph5.6 kmh 30.19 in1022.4 mb - 0.00 in0.0 mm 0.00 in0.0 mm
04:35 AM 59.0°F15.0°C 51.1°F10.6°C 75% 2.3 mph E3.7 kmh E 3.5 mph5.6 kmh 30.19 in1022.4 mb - 0.00 in0.0 mm 0.00 in0.0 mm
04:40 AM 59.0°F15.0°C 51.1°F10.6°C 75% 2.3 mph ESE3.7 kmh ESE 3.5 mph5.6 kmh 30.19 in1022.4 mb - 0.00 in0.0 mm 0.00 in0.0 mm
04:45 AM 58.9°F14.9°C 51.0°F10.6°C 75% 1.2 mph ESE1.9 kmh ESE 3.5 mph5.6 kmh 30.19 in1022.4 mb - 0.00 in0.0 mm 0.00 in0.0 mm
04:50 AM 58.9°F14.9°C 51.0°F10.6°C 75% 2.3 mph ESE3.7 kmh ESE 3.5 mph5.6 kmh 30.19 in1022.4 mb - 0.00 in0.0 mm 0.00 in0.0 mm
04:55 AM 59.0°F15.0°C 51.1°F10.6°C 75% 1.2 mph ESE1.9 kmh ESE 2.3 mph3.7 kmh 30.19 in1022.4 mb - 0.00 in0.0 mm 0.00 in0.0 mm
05:00 AM 59.0°F15.0°C 51.0°F10.6°C 75% 1.2 mph ESE1.9 kmh ESE 2.3 mph3.7 kmh 30.19 in1022.4 mb - 0.00 in0.0 mm 0.00 in0.0 mm
05:05 AM 59.0°F15.0°C 51.1°F10.6°C 75% 1.2 mph ESE1.9 kmh ESE 3.5 mph5.6 kmh 30.19 in1022.4 mb - 0.00 in0.0 mm 0.00 in0.0 mm
05:10 AM 59.0°F15.0°C 51.1°F10.6°C 75% 1.2 mph ESE1.9 kmh ESE 3.5 mph5.6 kmh 30.19 in1022.4 mb - 0.00 in0.0 mm 0.00 in0.0 mm
05:15 AM 59.1°F15.1°C 51.2°F10.7°C 75% 1.2 mph ESE1.9 kmh ESE 1.2 mph1.9 kmh 30.19 in1022.4 mb - 0.00 in0.0 mm 0.00 in0.0 mm
05:20 AM 59.1°F15.1°C 51.2°F10.7°C 75% 1.2 mph ESE1.9 kmh ESE 2.3 mph3.7 kmh 30.19 in1022.4 mb - 0.00 in0.0 mm 0.00 in0.0 mm
05:25 AM 59.2°F15.1°C 51.3°F10.7°C 75% 1.2 mph ESE1.9 kmh ESE 2.3 mph3.7 kmh 30.19 in1022.4 mb - 0.00 in0.0 mm 0.00 in0.0 mm
05:30 AM 59.2°F15.1°C 51.3°F10.7°C 75% 1.2 mph E1.9 kmh E 2.3 mph3.7 kmh 30.18 in1022.0 mb - 0.00 in0.0 mm 0.00 in0.0 mm
05:35 AM 59.2°F15.1°C 51.3°F10.7°C 75% 1.2 mph E1.9 kmh E 3.5 mph5.6 kmh 30.18 in1022.0 mb - 0.00 in0.0 mm 0.00 in0.0 mm
05:40 AM 59.3°F15.2°C 51.4°F10.8°C 75% 2.3 mph ESE3.7 kmh ESE 3.5 mph5.6 kmh 30.19 in1022.4 mb - 0.00 in0.0 mm 0.00 in0.0 mm
05:45 AM 59.4°F15.2°C 51.8°F11.0°C 76% 1.2 mph SE1.9 kmh SE 2.3 mph3.7 kmh 30.19 in1022.4 mb - 0.00 in0.0 mm 0.00 in0.0 mm
05:50 AM 59.4°F15.2°C 51.5°F10.8°C 75% 1.2 mph SE1.9 kmh SE 2.3 mph3.7 kmh 30.19 in1022.4 mb - 0.00 in0.0 mm 0.00 in0.0 mm
05:55 AM 59.5°F15.3°C 51.6°F10.9°C 75% Calm Calm 2.3 mph3.7 kmh 30.19 in1022.4 mb - 0.00 in0.0 mm 0.00 in0.0 mm
06:00 AM 59.7°F15.4°C 51.7°F10.9°C 75% 2.3 mph SE3.7 kmh SE 2.3 mph3.7 kmh 30.19 in1022.4 mb - 0.00 in0.0 mm 0.00 in0.0 mm
06:05 AM 59.8°F15.4°C 51.9°F11.1°C 75% 1.2 mph SE1.9 kmh SE 3.5 mph5.6 kmh 30.19 in1022.4 mb - 0.00 in0.0 mm 0.00 in0.0 mm
06:10 AM 59.9°F15.5°C 52.0°F11.1°C 75% 3.5 mph E5.6 kmh E 3.5 mph5.6 kmh 30.19 in1022.4 mb - 0.00 in0.0 mm 0.00 in0.0 mm
06:15 AM 60.0°F15.6°C 52.1°F11.2°C 75% 2.3 mph ESE3.7 kmh ESE 3.5 mph5.6 kmh 30.19 in1022.4 mb - 0.00 in0.0 mm 0.00 in0.0 mm
06:20 AM 60.0°F15.6°C 52.1°F11.2°C 75% 2.3 mph ESE3.7 kmh ESE 3.5 mph5.6 kmh 30.19 in1022.4 mb - 0.00 in0.0 mm 0.00 in0.0 mm
06:25 AM 60.1°F15.6°C 52.1°F11.2°C 75% 2.3 mph SE3.7 kmh SE 3.5 mph5.6 kmh 30.19 in1022.4 mb - 0.00 in0.0 mm 0.00 in0.0 mm
06:30 AM 60.2°F15.7°C 51.9°F11.1°C 74% 2.3 mph SE3.7 kmh SE 3.5 mph5.6 kmh 30.19 in1022.4 mb - 0.00 in0.0 mm 0.00 in0.0 mm
06:35 AM 60.3°F15.7°C 52.0°F11.1°C 74% 2.3 mph SE3.7 kmh SE 3.5 mph5.6 kmh 30.20 in1022.7 mb - 0.00 in0.0 mm 0.00 in0.0 mm
06:40 AM 60.3°F15.7°C 52.0°F11.1°C 74% 2.3 mph SE3.7 kmh SE 3.5 mph5.6 kmh 30.20 in1022.7 mb - 0.00 in0.0 mm 0.00 in0.0 mm
06:45 AM 60.4°F15.8°C 52.1°F11.2°C 74% 2.3 mph SE3.7 kmh SE 3.5 mph5.6 kmh 30.20 in1022.7 mb - 0.00 in0.0 mm 0.00 in0.0 mm
06:50 AM 60.5°F15.8°C 51.8°F11.0°C 73% 3.5 mph SE5.6 kmh SE 3.5 mph5.6 kmh 30.20 in1022.7 mb - 0.00 in0.0 mm 0.00 in0.0 mm
06:55 AM 60.7°F15.9°C 52.4°F11.3°C 74% 2.3 mph SE3.7 kmh SE 3.5 mph5.6 kmh 30.19 in1022.4 mb - 0.00 in0.0 mm 0.00 in0.0 mm
07:00 AM 60.7°F15.9°C 52.0°F11.1°C 73% 1.2 mph E1.9 kmh E 3.5 mph5.6 kmh 30.20 in1022.7 mb - 0.00 in0.0 mm 0.00 in0.0 mm
07:05 AM 60.8°F16.0°C 52.1°F11.2°C 73% 2.3 mph ESE3.7 kmh ESE 4.6 mph7.4 kmh 30.20 in1022.7 mb - 0.00 in0.0 mm 0.00 in0.0 mm
07:10 AM 60.8°F16.0°C 52.1°F11.2°C 73% 2.3 mph ESE3.7 kmh ESE 5.8 mph9.3 kmh 30.20 in1022.7 mb - 0.00 in0.0 mm 0.00 in0.0 mm
07:15 AM 60.9°F16.1°C 51.8°F11.0°C 72% 3.5 mph E5.6 kmh E 5.8 mph9.3 kmh 30.20 in1022.7 mb - 0.00 in0.0 mm 0.00 in0.0 mm
07:20 AM 60.9°F16.1°C 51.8°F11.0°C 72% 1.2 mph E1.9 kmh E 3.5 mph5.6 kmh 30.20 in1022.7 mb - 0.00 in0.0 mm 0.00 in0.0 mm
07:25 AM 60.9°F16.1°C 51.8°F11.0°C 72% 1.2 mph E1.9 kmh E 2.3 mph3.7 kmh 30.20 in1022.7 mb - 0.00 in0.0 mm 0.00 in0.0 mm
07:30 AM 61.0°F16.1°C 51.9°F11.1°C 72% 2.3 mph E3.7 kmh E 3.5 mph5.6 kmh 30.20 in1022.7 mb - 0.00 in0.0 mm 0.00 in0.0 mm
07:35 AM 61.1°F16.2°C 52.0°F11.1°C 72% 2.3 mph SE3.7 kmh SE 3.5 mph5.6 kmh 30.20 in1022.7 mb - 0.00 in0.0 mm 0.00 in0.0 mm
07:40 AM 61.2°F16.2°C 52.1°F11.2°C 72% 1.2 mph NNE1.9 kmh NNE 1.2 mph1.9 kmh 30.20 in1022.7 mb - 0.00 in0.0 mm 0.00 in0.0 mm
07:45 AM 61.2°F16.2°C 51.7°F10.9°C 71% Calm Calm -- 30.20 in1022.7 mb - 0.00 in0.0 mm 0.00 in0.0 mm
07:50 AM 61.3°F16.3°C 52.2°F11.2°C 72% 1.2 mph SE1.9 kmh SE 1.2 mph1.9 kmh 30.20 in1022.7 mb - 0.00 in0.0 mm 0.00 in0.0 mm
07:55 AM 61.3°F16.3°C 52.2°F11.2°C 72% 2.3 mph NE3.7 kmh NE 3.5 mph5.6 kmh 30.20 in1022.7 mb - 0.00 in0.0 mm 0.00 in0.0 mm
08:00 AM 61.2°F16.2°C 52.1°F11.2°C 72% 1.2 mph NNE1.9 kmh NNE 3.5 mph5.6 kmh 30.20 in1022.7 mb - 0.00 in0.0 mm 0.00 in0.0 mm
08:05 AM 61.1°F16.2°C 52.4°F11.3°C 73% 2.3 mph E3.7 kmh E 3.5 mph5.6 kmh 30.20 in1022.7 mb - 0.00 in0.0 mm 0.00 in0.0 mm
08:10 AM 61.2°F16.2°C 52.5°F11.4°C 73% 3.5 mph E5.6 kmh E 4.6 mph7.4 kmh 30.20 in1022.7 mb - 0.00 in0.0 mm 0.00 in0.0 mm
08:15 AM 61.2°F16.2°C 52.5°F11.4°C 73% 1.2 mph E1.9 kmh E 1.2 mph1.9 kmh 30.20 in1022.7 mb - 0.00 in0.0 mm 0.00 in0.0 mm
08:20 AM 61.3°F16.3°C 52.6°F11.4°C 73% 1.2 mph NE1.9 kmh NE 4.6 mph7.4 kmh 30.20 in1022.7 mb - 0.00 in0.0 mm 0.00 in0.0 mm
08:25 AM 61.3°F16.3°C 52.6°F11.4°C 73% 2.3 mph ENE3.7 kmh ENE 3.5 mph5.6 kmh 30.20 in1022.7 mb - 0.00 in0.0 mm 0.00 in0.0 mm
08:30 AM 61.4°F16.3°C 52.3°F11.3°C 72% 2.3 mph E3.7 kmh E 2.3 mph3.7 kmh 30.20 in1022.7 mb - 0.00 in0.0 mm 0.00 in0.0 mm
08:35 AM 61.5°F16.4°C 52.4°F11.3°C 72% 2.3 mph E3.7 kmh E 3.5 mph5.6 kmh 30.20 in1022.7 mb - 0.00 in0.0 mm 0.00 in0.0 mm
08:40 AM 61.5°F16.4°C 52.4°F11.3°C 72% 1.2 mph NNE1.9 kmh NNE 3.5 mph5.6 kmh 30.20 in1022.7 mb - 0.00 in0.0 mm 0.00 in0.0 mm
08:45 AM 61.6°F16.4°C 52.5°F11.4°C 72% 2.3 mph E3.7 kmh E 3.5 mph5.6 kmh 30.20 in1022.7 mb - 0.00 in0.0 mm 0.00 in0.0 mm
08:50 AM 61.7°F16.5°C 52.6°F11.4°C 72% 2.3 mph E3.7 kmh E 3.5 mph5.6 kmh 30.20 in1022.7 mb - 0.00 in0.0 mm 0.00 in0.0 mm
08:55 AM 62.0°F16.7°C 52.9°F11.6°C 72% 3.5 mph E5.6 kmh E 4.6 mph7.4 kmh 30.20 in1022.7 mb - 0.00 in0.0 mm 0.00 in0.0 mm
09:00 AM 62.1°F16.7°C 53.0°F11.7°C 72% 4.6 mph ENE7.4 kmh ENE 8.1 mph13.0 kmh 30.20 in1022.7 mb - 0.00 in0.0 mm 0.00 in0.0 mm
09:05 AM 62.0°F16.7°C 52.9°F11.6°C 72% 4.6 mph E7.4 kmh E 6.9 mph11.1 kmh 30.20 in1022.7 mb - 0.00 in0.0 mm 0.00 in0.0 mm
09:10 AM 62.0°F16.7°C 52.9°F11.6°C 72% 2.3 mph E3.7 kmh E 5.8 mph9.3 kmh 30.20 in1022.7 mb - 0.00 in0.0 mm 0.00 in0.0 mm
09:15 AM 62.1°F16.7°C 53.3°F11.8°C 73% 4.6 mph E7.4 kmh E 8.1 mph13.0 kmh 30.20 in1022.7 mb - 0.00 in0.0 mm 0.00 in0.0 mm
09:20 AM 62.2°F16.8°C 53.4°F11.9°C 73% 1.2 mph SE1.9 kmh SE 2.3 mph3.7 kmh 30.20 in1022.7 mb - 0.00 in0.0 mm 0.00 in0.0 mm
09:25 AM 62.3°F16.8°C 53.2°F11.8°C 72% 2.3 mph NE3.7 kmh NE 4.6 mph7.4 kmh 30.20 in1022.7 mb - 0.00 in0.0 mm 0.00 in0.0 mm
09:30 AM 62.3°F16.8°C 53.5°F11.9°C 73% 2.3 mph ENE3.7 kmh ENE 8.1 mph13.0 kmh 30.20 in1022.7 mb - 0.00 in0.0 mm 0.00 in0.0 mm
09:35 AM 62.4°F16.9°C 53.6°F12.0°C 73% 3.5 mph SE5.6 kmh SE 3.5 mph5.6 kmh 30.20 in1022.7 mb - 0.00 in0.0 mm 0.00 in0.0 mm
09:40 AM 62.7°F17.1°C 53.5°F11.9°C 72% 3.5 mph E5.6 kmh E 3.5 mph5.6 kmh 30.20 in1022.7 mb - 0.00 in0.0 mm 0.00 in0.0 mm
09:45 AM 62.8°F17.1°C 53.6°F12.0°C 72% 3.5 mph E5.6 kmh E 5.8 mph9.3 kmh 30.20 in1022.7 mb - 0.00 in0.0 mm 0.00 in0.0 mm
09:50 AM 62.9°F17.2°C 53.7°F12.1°C 72% 3.5 mph NE5.6 kmh NE 4.6 mph7.4 kmh 30.20 in1022.7 mb - 0.00 in0.0 mm 0.00 in0.0 mm
09:55 AM 62.8°F17.1°C 53.6°F12.0°C 72% 3.5 mph E5.6 kmh E 3.5 mph5.6 kmh 30.20 in1022.7 mb - 0.00 in0.0 mm 0.00 in0.0 mm
10:00 AM 62.7°F17.1°C 53.5°F11.9°C 72% 1.2 mph E1.9 kmh E 3.5 mph5.6 kmh 30.20 in1022.7 mb - 0.00 in0.0 mm 0.00 in0.0 mm
10:05 AM 62.7°F17.1°C 53.5°F11.9°C 72% 4.6 mph E7.4 kmh E 4.6 mph7.4 kmh 30.20 in1022.7 mb - 0.00 in0.0 mm 0.00 in0.0 mm
10:10 AM 62.7°F17.1°C 53.9°F12.2°C 73% 2.3 mph ESE3.7 kmh ESE 3.5 mph5.6 kmh 30.20 in1022.7 mb - 0.00 in0.0 mm 0.00 in0.0 mm
10:15 AM 63.0°F17.2°C 53.8°F12.1°C 72% 2.3 mph E3.7 kmh E 3.5 mph5.6 kmh 30.20 in1022.7 mb - 0.00 in0.0 mm 0.00 in0.0 mm
10:20 AM 63.1°F17.3°C 53.9°F12.2°C 72% 1.2 mph ENE1.9 kmh ENE 1.2 mph1.9 kmh 30.20 in1022.7 mb - 0.00 in0.0 mm 0.00 in0.0 mm
10:25 AM 63.3°F17.4°C 54.1°F12.3°C 72% 3.5 mph E5.6 kmh E 5.8 mph9.3 kmh 30.20 in1022.7 mb - 0.00 in0.0 mm 0.00 in0.0 mm
10:30 AM 63.5°F17.5°C 54.3°F12.4°C 72% 4.6 mph E7.4 kmh E 6.9 mph11.1 kmh 30.20 in1022.7 mb - 0.00 in0.0 mm 0.00 in0.0 mm
10:35 AM 63.6°F17.6°C 54.4°F12.4°C 72% 2.3 mph SE3.7 kmh SE 3.5 mph5.6 kmh 30.20 in1022.7 mb - 0.00 in0.0 mm 0.00 in0.0 mm
10:40 AM 63.7°F17.6°C 54.1°F12.3°C 71% 2.3 mph ESE3.7 kmh ESE 3.5 mph5.6 kmh 30.20 in1022.7 mb - 0.00 in0.0 mm 0.00 in0.0 mm
10:45 AM 63.7°F17.6°C 54.1°F12.3°C 71% 2.3 mph E3.7 kmh E 2.3 mph3.7 kmh 30.20 in1022.7 mb - 0.00 in0.0 mm 0.00 in0.0 mm
10:50 AM 63.8°F17.7°C 54.6°F12.6°C 72% 2.3 mph SE3.7 kmh SE 4.6 mph7.4 kmh 30.20 in1022.7 mb - 0.00 in0.0 mm 0.00 in0.0 mm
10:55 AM 64.0°F17.8°C 54.4°F12.4°C 71% 2.3 mph SE3.7 kmh SE 3.5 mph5.6 kmh 30.20 in1022.7 mb - 0.00 in0.0 mm 0.00 in0.0 mm
11:00 AM 64.3°F17.9°C 54.7°F12.6°C 71% 2.3 mph ESE3.7 kmh ESE 2.3 mph3.7 kmh 30.20 in1022.7 mb - 0.00 in0.0 mm 0.00 in0.0 mm
11:05 AM 64.7°F18.2°C 54.7°F12.6°C 70% 2.3 mph E3.7 kmh E 5.8 mph9.3 kmh 30.19 in1022.4 mb - 0.00 in0.0 mm 0.00 in0.0 mm
11:10 AM 65.3°F18.5°C 55.2°F12.9°C 70% 3.5 mph E5.6 kmh E 4.6 mph7.4 kmh 30.19 in1022.4 mb - 0.00 in0.0 mm 0.00 in0.0 mm
11:15 AM 65.4°F18.6°C 55.0°F12.8°C 69% 2.3 mph E3.7 kmh E 3.5 mph5.6 kmh 30.19 in1022.4 mb - 0.00 in0.0 mm 0.00 in0.0 mm
11:20 AM 65.6°F18.7°C 55.2°F12.9°C 69% 3.5 mph ESE5.6 kmh ESE 3.5 mph5.6 kmh 30.19 in1022.4 mb - 0.00 in0.0 mm 0.00 in0.0 mm
11:25 AM 65.8°F18.8°C 55.3°F12.9°C 69% 4.6 mph SE7.4 kmh SE 6.9 mph11.1 kmh 30.19 in1022.4 mb - 0.00 in0.0 mm 0.00 in0.0 mm
11:30 AM 65.6°F18.7°C 55.1°F12.8°C 69% 5.8 mph E9.3 kmh E 8.1 mph13.0 kmh 30.19 in1022.4 mb - 0.00 in0.0 mm 0.00 in0.0 mm
11:35 AM 65.4°F18.6°C 55.0°F12.8°C 69% 1.2 mph ESE1.9 kmh ESE 5.8 mph9.3 kmh 30.19 in1022.4 mb - 0.00 in0.0 mm 0.00 in0.0 mm
11:40 AM 65.6°F18.7°C 55.2°F12.9°C 69% 2.3 mph ESE3.7 kmh ESE 5.8 mph9.3 kmh 30.19 in1022.4 mb - 0.00 in0.0 mm 0.00 in0.0 mm
11:45 AM 65.9°F18.8°C 55.4°F13.0°C 69% 2.3 mph ESE3.7 kmh ESE 3.5 mph5.6 kmh 30.19 in1022.4 mb - 0.00 in0.0 mm 0.00 in0.0 mm
11:50 AM 66.1°F18.9°C 55.6°F13.1°C 69% 2.3 mph E3.7 kmh E 3.5 mph5.6 kmh 30.19 in1022.4 mb - 0.00 in0.0 mm 0.00 in0.0 mm
11:55 AM 66.2°F19.0°C 55.7°F13.2°C 69% 2.3 mph E3.7 kmh E 3.5 mph5.6 kmh 30.19 in1022.4 mb - 0.00 in0.0 mm 0.00 in0.0 mm
12:00 PM 66.3°F19.1°C 55.4°F13.0°C 68% 2.3 mph NE3.7 kmh NE 4.6 mph7.4 kmh 30.19 in1022.4 mb - 0.00 in0.0 mm 0.00 in0.0 mm
12:05 PM 66.1°F18.9°C 55.6°F13.1°C 69% 4.6 mph E7.4 kmh E 6.9 mph11.1 kmh 30.19 in1022.4 mb - 0.00 in0.0 mm 0.00 in0.0 mm
12:10 PM 65.8°F18.8°C 55.3°F12.9°C 69% 2.3 mph SE3.7 kmh SE 3.5 mph5.6 kmh 30.19 in1022.4 mb - 0.00 in0.0 mm 0.00 in0.0 mm
12:15 PM 66.0°F18.9°C 55.5°F13.1°C 69% 3.5 mph ESE5.6 kmh ESE 3.5 mph5.6 kmh 30.19 in1022.4 mb - 0.00 in0.0 mm 0.00 in0.0 mm
12:20 PM 66.5°F19.2°C 55.6°F13.1°C 68% 2.3 mph SSE3.7 kmh SSE 3.5 mph5.6 kmh 30.19 in1022.4 mb - 0.00 in0.0 mm 0.00 in0.0 mm
12:25 PM 66.7°F19.3°C 55.8°F13.2°C 68% 3.5 mph E5.6 kmh E 3.5 mph5.6 kmh 30.19 in1022.4 mb - 0.00 in0.0 mm 0.00 in0.0 mm
12:30 PM 66.8°F19.3°C 55.9°F13.3°C 68% 3.5 mph E5.6 kmh E 5.8 mph9.3 kmh 30.19 in1022.4 mb - 0.00 in0.0 mm 0.00 in0.0 mm
12:35 PM 66.8°F19.3°C 55.9°F13.3°C 68% 2.3 mph ESE3.7 kmh ESE 4.6 mph7.4 kmh 30.19 in1022.4 mb - 0.00 in0.0 mm 0.00 in0.0 mm
12:40 PM 66.7°F19.3°C 55.8°F13.2°C 68% 3.5 mph E5.6 kmh E 5.8 mph9.3 kmh 30.19 in1022.4 mb - 0.00 in0.0 mm 0.00 in0.0 mm
12:45 PM 66.5°F19.2°C 55.6°F13.1°C 68% 4.6 mph E7.4 kmh E 5.8 mph9.3 kmh 30.19 in1022.4 mb - 0.00 in0.0 mm 0.00 in0.0 mm
12:50 PM 66.3°F19.1°C 55.8°F13.2°C 69% Calm Calm 2.3 mph3.7 kmh 30.19 in1022.4 mb - 0.00 in0.0 mm 0.00 in0.0 mm
12:55 PM 66.4°F19.1°C 55.9°F13.3°C 69% 1.2 mph SE1.9 kmh SE 2.3 mph3.7 kmh 30.19 in1022.4 mb - 0.00 in0.0 mm 0.00 in0.0 mm
01:00 PM 66.5°F19.2°C 56.0°F13.3°C 69% 2.3 mph ENE3.7 kmh ENE 3.5 mph5.6 kmh 30.19 in1022.4 mb - 0.00 in0.0 mm 0.00 in0.0 mm
01:05 PM 66.4°F19.1°C 55.9°F13.3°C 69% 2.3 mph SE3.7 kmh SE 3.5 mph5.6 kmh 30.19 in1022.4 mb - 0.00 in0.0 mm 0.00 in0.0 mm
01:10 PM 66.1°F18.9°C 55.3°F12.9°C 68% 1.2 mph NE1.9 kmh NE 3.5 mph5.6 kmh 30.19 in1022.4 mb - 0.00 in0.0 mm 0.00 in0.0 mm
01:15 PM 65.9°F18.8°C 55.5°F13.1°C 69% 1.2 mph SE1.9 kmh SE 2.3 mph3.7 kmh 30.18 in1022.0 mb - 0.00 in0.0 mm 0.00 in0.0 mm
01:20 PM 66.0°F18.9°C 55.5°F13.1°C 69% 2.3 mph S3.7 kmh S 3.5 mph5.6 kmh 30.18 in1022.0 mb - 0.00 in0.0 mm 0.00 in0.0 mm
01:25 PM 66.0°F18.9°C 55.5°F13.1°C 69% 3.5 mph E5.6 kmh E 3.5 mph5.6 kmh 30.18 in1022.0 mb - 0.00 in0.0 mm 0.00 in0.0 mm
01:30 PM 66.1°F18.9°C 56.1°F13.4°C 70% 3.5 mph SSE5.6 kmh SSE 3.5 mph5.6 kmh 30.18 in1022.0 mb - 0.00 in0.0 mm 0.00 in0.0 mm
01:35 PM 66.3°F19.1°C 56.2°F13.4°C 70% 3.5 mph S5.6 kmh S 4.6 mph7.4 kmh 30.18 in1022.0 mb - 0.00 in0.0 mm 0.00 in0.0 mm
01:40 PM 66.1°F18.9°C 56.1°F13.4°C 70% 2.3 mph SE3.7 kmh SE 4.6 mph7.4 kmh 30.18 in1022.0 mb - 0.00 in0.0 mm 0.00 in0.0 mm
01:45 PM 66.0°F18.9°C 55.9°F13.3°C 70% 2.3 mph SSE3.7 kmh SSE 3.5 mph5.6 kmh 30.18 in1022.0 mb - 0.00 in0.0 mm 0.00 in0.0 mm
01:50 PM 65.9°F18.8°C 56.2°F13.4°C 71% 3.5 mph SSE5.6 kmh SSE 5.8 mph9.3 kmh 30.18 in1022.0 mb - 0.00 in0.0 mm 0.00 in0.0 mm
01:55 PM 65.9°F18.8°C 56.3°F13.5°C 71% 1.2 mph S1.9 kmh S 3.5 mph5.6 kmh 30.18 in1022.0 mb - 0.00 in0.0 mm 0.00 in0.0 mm
02:00 PM 66.1°F18.9°C 56.0°F13.3°C 70% 1.2 mph E1.9 kmh E 3.5 mph5.6 kmh 30.18 in1022.0 mb - 0.00 in0.0 mm 0.00 in0.0 mm
02:05 PM 66.4°F19.1°C 56.3°F13.5°C 70% 1.2 mph ESE1.9 kmh ESE 2.3 mph3.7 kmh 30.18 in1022.0 mb - 0.00 in0.0 mm 0.00 in0.0 mm
02:10 PM 66.5°F19.2°C 56.5°F13.6°C 70% 1.2 mph SE1.9 kmh SE 2.3 mph3.7 kmh 30.18 in1022.0 mb - 0.00 in0.0 mm 0.00 in0.0 mm
02:15 PM 66.8°F19.3°C 56.3°F13.5°C 69% 1.2 mph SE1.9 kmh SE 3.5 mph5.6 kmh 30.18 in1022.0 mb - 0.00 in0.0 mm 0.00 in0.0 mm
02:20 PM 66.8°F19.3°C 56.3°F13.5°C 69% 2.3 mph SE3.7 kmh SE 3.5 mph5.6 kmh 30.18 in1022.0 mb - 0.00 in0.0 mm 0.00 in0.0 mm
02:25 PM 66.8°F19.3°C 56.3°F13.5°C 69% 2.3 mph SSE3.7 kmh SSE 3.5 mph5.6 kmh 30.18 in1022.0 mb - 0.00 in0.0 mm 0.00 in0.0 mm
02:30 PM 66.7°F19.3°C 56.2°F13.4°C 69% 2.3 mph SSE3.7 kmh SSE 3.5 mph5.6 kmh 30.18 in1022.0 mb - 0.00 in0.0 mm 0.00 in0.0 mm
02:35 PM 66.7°F19.3°C 56.2°F13.4°C 69% 3.5 mph E5.6 kmh E 5.8 mph9.3 kmh 30.18 in1022.0 mb - 0.00 in0.0 mm 0.00 in0.0 mm
02:40 PM 66.8°F19.3°C 56.3°F13.5°C 69% 3.5 mph SE5.6 kmh SE 4.6 mph7.4 kmh 30.18 in1022.0 mb - 0.00 in0.0 mm 0.00 in0.0 mm
02:45 PM 67.1°F19.5°C 56.6°F13.7°C 69% 3.5 mph SE5.6 kmh SE 5.8 mph9.3 kmh 30.18 in1022.0 mb - 0.00 in0.0 mm 0.00 in0.0 mm
02:50 PM 67.1°F19.5°C 57.0°F13.9°C 70% 3.5 mph SSE5.6 kmh SSE 4.6 mph7.4 kmh 30.18 in1022.0 mb - 0.00 in0.0 mm 0.00 in0.0 mm
02:55 PM 67.2°F19.6°C 56.7°F13.7°C 69% 3.5 mph SSE5.6 kmh SSE 4.6 mph7.4 kmh 30.18 in1022.0 mb - 0.00 in0.0 mm 0.00 in0.0 mm
03:00 PM 67.4°F19.7°C 57.3°F14.1°C 70% 2.3 mph ESE3.7 kmh ESE 3.5 mph5.6 kmh 30.18 in1022.0 mb - 0.00 in0.0 mm 0.00 in0.0 mm
03:05 PM 67.7°F19.8°C 56.8°F13.8°C 68% 2.3 mph ESE3.7 kmh ESE 3.5 mph5.6 kmh 30.18 in1022.0 mb - 0.00 in0.0 mm 0.00 in0.0 mm
03:10 PM 67.8°F19.9°C 56.9°F13.8°C 68% 3.5 mph SSE5.6 kmh SSE 5.8 mph9.3 kmh 30.18 in1022.0 mb - 0.00 in0.0 mm 0.00 in0.0 mm
03:15 PM 67.9°F19.9°C 56.9°F13.8°C 68% 3.5 mph SSE5.6 kmh SSE 5.8 mph9.3 kmh 30.18 in1022.0 mb - 0.00 in0.0 mm 0.00 in0.0 mm
03:20 PM 67.8°F19.9°C 56.9°F13.8°C 68% 2.3 mph ESE3.7 kmh ESE 5.8 mph9.3 kmh 30.18 in1022.0 mb - 0.00 in0.0 mm 0.00 in0.0 mm
03:25 PM 67.6°F19.8°C 56.7°F13.7°C 68% 2.3 mph ESE3.7 kmh ESE 3.5 mph5.6 kmh 30.18 in1022.0 mb - 0.00 in0.0 mm 0.00 in0.0 mm
03:30 PM 67.7°F19.8°C 57.1°F13.9°C 69% 4.6 mph E7.4 kmh E 8.1 mph13.0 kmh 30.18 in1022.0 mb - 0.00 in0.0 mm 0.00 in0.0 mm
03:35 PM 67.9°F19.9°C 56.9°F13.8°C 68% 5.8 mph SE9.3 kmh SE 6.9 mph11.1 kmh 30.18 in1022.0 mb - 0.00 in0.0 mm 0.00 in0.0 mm
03:40 PM 68.0°F20.0°C 57.0°F13.9°C 68% 3.5 mph E5.6 kmh E 4.6 mph7.4 kmh 30.17 in1021.7 mb - 0.00 in0.0 mm 0.00 in0.0 mm
03:45 PM 68.0°F20.0°C 57.0°F13.9°C 68% 3.5 mph ESE5.6 kmh ESE 3.5 mph5.6 kmh 30.17 in1021.7 mb - 0.00 in0.0 mm 0.00 in0.0 mm
03:50 PM 68.2°F20.1°C 57.2°F14.0°C 68% 4.6 mph ESE7.4 kmh ESE 9.2 mph14.8 kmh 30.17 in1021.7 mb - 0.00 in0.0 mm 0.00 in0.0 mm
03:55 PM 68.3°F20.2°C 57.3°F14.1°C 68% 3.5 mph E5.6 kmh E 5.8 mph9.3 kmh 30.17 in1021.7 mb - 0.00 in0.0 mm 0.00 in0.0 mm
04:00 PM 68.3°F20.2°C 57.3°F14.1°C 68% 2.3 mph SE3.7 kmh SE 2.3 mph3.7 kmh 30.17 in1021.7 mb - 0.00 in0.0 mm 0.00 in0.0 mm
04:05 PM 68.4°F20.2°C 57.0°F13.9°C 67% 3.5 mph SE5.6 kmh SE 5.8 mph9.3 kmh 30.17 in1021.7 mb - 0.00 in0.0 mm 0.00 in0.0 mm
04:10 PM 68.5°F20.3°C 57.1°F13.9°C 67% 2.3 mph SE3.7 kmh SE 3.5 mph5.6 kmh 30.17 in1021.7 mb - 0.00 in0.0 mm 0.00 in0.0 mm
04:15 PM 68.6°F20.3°C 57.2°F14.0°C 67% 3.5 mph SE5.6 kmh SE 3.5 mph5.6 kmh 30.17 in1021.7 mb - 0.00 in0.0 mm 0.00 in0.0 mm
04:20 PM 68.5°F20.3°C 57.1°F13.9°C 67% 3.5 mph ESE5.6 kmh ESE 3.5 mph5.6 kmh 30.17 in1021.7 mb - 0.00 in0.0 mm 0.00 in0.0 mm
04:25 PM 68.5°F20.3°C 57.1°F13.9°C 67% 3.5 mph SE5.6 kmh SE 6.9 mph11.1 kmh 30.16 in1021.3 mb - 0.00 in0.0 mm 0.00 in0.0 mm
04:30 PM 68.5°F20.3°C 57.1°F13.9°C 67% 2.3 mph SE3.7 kmh SE 4.6 mph7.4 kmh 30.16 in1021.3 mb - 0.00 in0.0 mm 0.00 in0.0 mm
04:35 PM 68.5°F20.3°C 57.1°F13.9°C 67% 3.5 mph ESE5.6 kmh ESE 5.8 mph9.3 kmh 30.16 in1021.3 mb - 0.00 in0.0 mm 0.00 in0.0 mm
04:40 PM 68.6°F20.3°C 57.2°F14.0°C 67% 4.6 mph E7.4 kmh E 5.8 mph9.3 kmh 30.16 in1021.3 mb - 0.00 in0.0 mm 0.00 in0.0 mm
04:45 PM 68.8°F20.4°C 57.8°F14.3°C 68% 3.5 mph S5.6 kmh S 4.6 mph7.4 kmh 30.16 in1021.3 mb - 0.00 in0.0 mm 0.00 in0.0 mm
04:50 PM 68.8°F20.4°C 57.4°F14.1°C 67% 2.3 mph SE3.7 kmh SE 3.5 mph5.6 kmh 30.16 in1021.3 mb - 0.00 in0.0 mm 0.00 in0.0 mm
04:55 PM 68.9°F20.5°C 57.1°F13.9°C 66% 2.3 mph ESE3.7 kmh ESE 3.5 mph5.6 kmh 30.16 in1021.3 mb - 0.00 in0.0 mm 0.00 in0.0 mm
05:00 PM 69.0°F20.6°C 57.2°F14.0°C 66% 3.5 mph E5.6 kmh E 3.5 mph5.6 kmh 30.16 in1021.3 mb - 0.00 in0.0 mm 0.00 in0.0 mm
05:05 PM 69.0°F20.6°C 57.1°F13.9°C 66% 3.5 mph E5.6 kmh E 4.6 mph7.4 kmh 30.16 in1021.3 mb - 0.00 in0.0 mm 0.00 in0.0 mm
05:10 PM 69.0°F20.6°C 57.2°F14.0°C 66% 1.2 mph SE1.9 kmh SE 3.5 mph5.6 kmh 30.16 in1021.3 mb - 0.00 in0.0 mm 0.00 in0.0 mm
05:15 PM 68.7°F20.4°C 56.9°F13.8°C 66% 4.6 mph SE7.4 kmh SE 4.6 mph7.4 kmh 30.16 in1021.3 mb - 0.00 in0.0 mm 0.00 in0.0 mm
05:20 PM 68.6°F20.3°C 56.8°F13.8°C 66% 3.5 mph SE5.6 kmh SE 3.5 mph5.6 kmh 30.16 in1021.3 mb - 0.00 in0.0 mm 0.00 in0.0 mm
05:25 PM 68.4°F20.2°C 57.5°F14.2°C 68% 5.8 mph SSE9.3 kmh SSE 6.9 mph11.1 kmh 30.16 in1021.3 mb - 0.00 in0.0 mm 0.00 in0.0 mm
05:30 PM 68.0°F20.0°C 57.4°F14.1°C 69% 8.1 mph SSE13.0 kmh SSE 10.4 mph16.7 kmh 30.16 in1021.3 mb - 0.00 in0.0 mm 0.00 in0.0 mm
05:35 PM 67.7°F19.8°C 57.2°F14.0°C 69% 5.8 mph SSE9.3 kmh SSE 8.1 mph13.0 kmh 30.16 in1021.3 mb - 0.00 in0.0 mm 0.00 in0.0 mm
05:40 PM 67.4°F19.7°C 56.9°F13.8°C 69% 5.8 mph S9.3 kmh S 8.1 mph13.0 kmh 30.16 in1021.3 mb - 0.00 in0.0 mm 0.00 in0.0 mm
05:45 PM 67.1°F19.5°C 56.6°F13.7°C 69% 5.8 mph S9.3 kmh S 8.1 mph13.0 kmh 30.16 in1021.3 mb - 0.00 in0.0 mm 0.00 in0.0 mm
05:50 PM 67.0°F19.4°C 56.5°F13.6°C 69% 8.1 mph S13.0 kmh S 11.5 mph18.5 kmh 30.16 in1021.3 mb - 0.00 in0.0 mm 0.00 in0.0 mm
05:55 PM 66.9°F19.4°C 56.8°F13.8°C 70% 6.9 mph SSE11.1 kmh SSE 11.5 mph18.5 kmh 30.16 in1021.3 mb - 0.00 in0.0 mm 0.00 in0.0 mm
06:00 PM 67.0°F19.4°C 56.5°F13.6°C 69% 4.6 mph SSE7.4 kmh SSE 8.1 mph13.0 kmh 30.16 in1021.3 mb - 0.00 in0.0 mm 0.00 in0.0 mm
06:05 PM 67.2°F19.6°C 57.1°F13.9°C 70% 4.6 mph SE7.4 kmh SE 10.4 mph16.7 kmh 30.16 in1021.3 mb - 0.00 in0.0 mm 0.00 in0.0 mm
06:10 PM 67.3°F19.6°C 56.8°F13.8°C 69% 6.9 mph SSE11.1 kmh SSE 10.4 mph16.7 kmh 30.16 in1021.3 mb - 0.00 in0.0 mm 0.00 in0.0 mm
06:15 PM 67.1°F19.5°C 56.6°F13.7°C 69% 5.8 mph SSE9.3 kmh SSE 9.2 mph14.8 kmh 30.16 in1021.3 mb - 0.00 in0.0 mm 0.00 in0.0 mm
06:20 PM 66.9°F19.4°C 56.4°F13.6°C 69% 4.6 mph SE7.4 kmh SE 4.6 mph7.4 kmh 30.16 in1021.3 mb - 0.00 in0.0 mm 0.00 in0.0 mm
06:25 PM 66.8°F19.3°C 56.3°F13.5°C 69% 4.6 mph SE7.4 kmh SE 9.2 mph14.8 kmh 30.16 in1021.3 mb - 0.00 in0.0 mm 0.00 in0.0 mm
06:30 PM 66.7°F19.3°C 56.2°F13.4°C 69% 3.5 mph ESE5.6 kmh ESE 8.1 mph13.0 kmh 30.16 in1021.3 mb - 0.00 in0.0 mm 0.00 in0.0 mm
06:35 PM 66.6°F19.2°C 56.1°F13.4°C 69% 2.3 mph SE3.7 kmh SE 4.6 mph7.4 kmh 30.16 in1021.3 mb - 0.00 in0.0 mm 0.00 in0.0 mm
06:40 PM 66.4°F19.1°C 55.9°F13.3°C 69% 3.5 mph SE5.6 kmh SE 8.1 mph13.0 kmh 30.16 in1021.3 mb - 0.00 in0.0 mm 0.00 in0.0 mm
06:45 PM 66.2°F19.0°C 55.7°F13.2°C 69% 3.5 mph SE5.6 kmh SE 5.8 mph9.3 kmh 30.16 in1021.3 mb - 0.00 in0.0 mm 0.00 in0.0 mm
06:50 PM 66.2°F19.0°C 55.7°F13.2°C 69% 5.8 mph SSE9.3 kmh SSE 6.9 mph11.1 kmh 30.16 in1021.3 mb - 0.00 in0.0 mm 0.00 in0.0 mm
06:55 PM 66.0°F18.9°C 55.5°F13.1°C 69% 3.5 mph SE5.6 kmh SE 5.8 mph9.3 kmh 30.16 in1021.3 mb - 0.00 in0.0 mm 0.00 in0.0 mm
07:00 PM 65.9°F18.8°C 55.8°F13.2°C 70% 4.6 mph SE7.4 kmh SE 6.9 mph11.1 kmh 30.16 in1021.3 mb - 0.00 in0.0 mm 0.00 in0.0 mm
07:05 PM 65.7°F18.7°C 55.7°F13.2°C 70% 3.5 mph SSE5.6 kmh SSE 3.5 mph5.6 kmh 30.16 in1021.3 mb - 0.00 in0.0 mm 0.00 in0.0 mm
07:10 PM 65.6°F18.7°C 55.5°F13.1°C 70% 3.5 mph SE5.6 kmh SE 4.6 mph7.4 kmh 30.16 in1021.3 mb - 0.00 in0.0 mm 0.00 in0.0 mm
07:15 PM 65.4°F18.6°C 55.4°F13.0°C 70% 3.5 mph SE5.6 kmh SE 5.8 mph9.3 kmh 30.17 in1021.7 mb - 0.00 in0.0 mm 0.00 in0.0 mm
07:20 PM 65.2°F18.4°C 55.2°F12.9°C 70% 4.6 mph SE7.4 kmh SE 6.9 mph11.1 kmh 30.16 in1021.3 mb - 0.00 in0.0 mm 0.00 in0.0 mm
07:25 PM 65.1°F18.4°C 55.5°F13.1°C 71% 4.6 mph SE7.4 kmh SE 9.2 mph14.8 kmh 30.16 in1021.3 mb - 0.00 in0.0 mm 0.00 in0.0 mm
07:30 PM 65.0°F18.3°C 55.3°F12.9°C 71% 4.6 mph SE7.4 kmh SE 6.9 mph11.1 kmh 30.16 in1021.3 mb - 0.00 in0.0 mm 0.00 in0.0 mm
07:35 PM 64.7°F18.2°C 55.5°F13.1°C 72% 6.9 mph ESE11.1 kmh ESE 9.2 mph14.8 kmh 30.17 in1021.7 mb - 0.00 in0.0 mm 0.00 in0.0 mm
07:40 PM 64.4°F18.0°C 55.2°F12.9°C 72% 4.6 mph ESE7.4 kmh ESE 9.2 mph14.8 kmh 30.17 in1021.7 mb - 0.00 in0.0 mm 0.00 in0.0 mm
07:45 PM 64.1°F17.8°C 54.9°F12.7°C 72% 4.6 mph ESE7.4 kmh ESE 9.2 mph14.8 kmh 30.17 in1021.7 mb - 0.00 in0.0 mm 0.00 in0.0 mm
07:50 PM 63.8°F17.7°C 54.6°F12.6°C 72% 3.5 mph E5.6 kmh E 8.1 mph13.0 kmh 30.17 in1021.7 mb - 0.00 in0.0 mm 0.00 in0.0 mm
07:55 PM 63.6°F17.6°C 54.8°F12.7°C 73% 3.5 mph ESE5.6 kmh ESE 6.9 mph11.1 kmh 30.17 in1021.7 mb - 0.00 in0.0 mm 0.00 in0.0 mm
08:00 PM 63.4°F17.4°C 54.6°F12.6°C 73% 4.6 mph SE7.4 kmh SE 6.9 mph11.1 kmh 30.17 in1021.7 mb - 0.00 in0.0 mm 0.00 in0.0 mm
08:05 PM 63.1°F17.3°C 54.3°F12.4°C 73% 3.5 mph SE5.6 kmh SE 6.9 mph11.1 kmh 30.17 in1021.7 mb - 0.00 in0.0 mm 0.00 in0.0 mm
08:10 PM 62.9°F17.2°C 54.1°F12.3°C 73% 3.5 mph SE5.6 kmh SE 5.8 mph9.3 kmh 30.18 in1022.0 mb - 0.00 in0.0 mm 0.00 in0.0 mm
08:15 PM 62.7°F17.1°C 54.3°F12.4°C 74% 2.3 mph SE3.7 kmh SE 3.5 mph5.6 kmh 30.18 in1022.0 mb - 0.00 in0.0 mm 0.00 in0.0 mm
08:20 PM 62.5°F16.9°C 54.1°F12.3°C 74% 2.3 mph ESE3.7 kmh ESE 5.8 mph9.3 kmh 30.18 in1022.0 mb - 0.00 in0.0 mm 0.00 in0.0 mm
08:25 PM 62.5°F16.9°C 54.1°F12.3°C 74% 3.5 mph SE5.6 kmh SE 6.9 mph11.1 kmh 30.18 in1022.0 mb - 0.00 in0.0 mm 0.00 in0.0 mm
08:30 PM 62.4°F16.9°C 54.0°F12.2°C 74% 3.5 mph E5.6 kmh E 5.8 mph9.3 kmh 30.18 in1022.0 mb - 0.00 in0.0 mm 0.00 in0.0 mm
08:35 PM 62.3°F16.8°C 53.9°F12.2°C 74% 4.6 mph ESE7.4 kmh ESE 5.8 mph9.3 kmh 30.18 in1022.0 mb - 0.00 in0.0 mm 0.00 in0.0 mm
08:40 PM 62.2°F16.8°C 53.8°F12.1°C 74% 3.5 mph SE5.6 kmh SE 6.9 mph11.1 kmh 30.18 in1022.0 mb - 0.00 in0.0 mm 0.00 in0.0 mm
08:45 PM 62.0°F16.7°C 53.6°F12.0°C 74% 3.5 mph ESE5.6 kmh ESE 3.5 mph5.6 kmh 30.18 in1022.0 mb - 0.00 in0.0 mm 0.00 in0.0 mm
08:50 PM 61.8°F16.6°C 53.4°F11.9°C 74% 2.3 mph SE3.7 kmh SE 4.6 mph7.4 kmh 30.18 in1022.0 mb - 0.00 in0.0 mm 0.00 in0.0 mm
08:55 PM 61.7°F16.5°C 54.1°F12.3°C 76% 3.5 mph ESE5.6 kmh ESE 4.6 mph7.4 kmh 30.18 in1022.0 mb - 0.00 in0.0 mm 0.00 in0.0 mm
09:00 PM 61.6°F16.4°C 53.6°F12.0°C 75% 4.6 mph E7.4 kmh E 9.2 mph14.8 kmh 30.18 in1022.0 mb - 0.00 in0.0 mm 0.00 in0.0 mm
09:05 PM 61.4°F16.3°C 53.4°F11.9°C 75% 3.5 mph ESE5.6 kmh ESE 8.1 mph13.0 kmh 30.18 in1022.0 mb - 0.00 in0.0 mm 0.00 in0.0 mm
09:10 PM 61.4°F16.3°C 53.4°F11.9°C 75% 2.3 mph SE3.7 kmh SE 3.5 mph5.6 kmh 30.19 in1022.4 mb - 0.00 in0.0 mm 0.00 in0.0 mm
09:15 PM 61.3°F16.3°C 53.3°F11.8°C 75% 4.6 mph SE7.4 kmh SE 9.2 mph14.8 kmh 30.19 in1022.4 mb - 0.00 in0.0 mm 0.00 in0.0 mm
09:20 PM 61.1°F16.2°C 53.1°F11.7°C 75% 4.6 mph SE7.4 kmh SE 9.2 mph14.8 kmh 30.19 in1022.4 mb - 0.00 in0.0 mm 0.00 in0.0 mm
09:25 PM 61.0°F16.1°C 53.0°F11.7°C 75% 3.5 mph SE5.6 kmh SE 5.8 mph9.3 kmh 30.19 in1022.4 mb - 0.00 in0.0 mm 0.00 in0.0 mm
09:30 PM 60.9°F16.1°C 52.9°F11.6°C 75% 3.5 mph SE5.6 kmh SE 3.5 mph5.6 kmh 30.19 in1022.4 mb - 0.00 in0.0 mm 0.00 in0.0 mm
09:35 PM 60.8°F16.0°C 52.8°F11.6°C 75% 4.6 mph SE7.4 kmh SE 8.1 mph13.0 kmh 30.19 in1022.4 mb - 0.00 in0.0 mm 0.00 in0.0 mm
09:40 PM 60.7°F15.9°C 52.7°F11.5°C 75% 4.6 mph SE7.4 kmh SE 8.1 mph13.0 kmh 30.19 in1022.4 mb - 0.00 in0.0 mm 0.00 in0.0 mm
09:45 PM 60.5°F15.8°C 52.5°F11.4°C 75% 3.5 mph ESE5.6 kmh ESE 8.1 mph13.0 kmh 30.19 in1022.4 mb - 0.00 in0.0 mm 0.00 in0.0 mm
09:50 PM 60.4°F15.8°C 52.8°F11.6°C 76% 3.5 mph SE5.6 kmh SE 4.6 mph7.4 kmh 30.20 in1022.7 mb - 0.00 in0.0 mm 0.00 in0.0 mm
09:55 PM 60.3°F15.7°C 52.7°F11.5°C 76% 5.8 mph ESE9.3 kmh ESE 9.2 mph14.8 kmh 30.19 in1022.4 mb - 0.00 in0.0 mm 0.00 in0.0 mm
10:00 PM 60.2°F15.7°C 52.6°F11.4°C 76% 4.6 mph ESE7.4 kmh ESE 5.8 mph9.3 kmh 30.20 in1022.7 mb - 0.00 in0.0 mm 0.00 in0.0 mm
10:05 PM 60.1°F15.6°C 52.5°F11.4°C 76% 3.5 mph ESE5.6 kmh ESE 3.5 mph5.6 kmh 30.19 in1022.4 mb - 0.00 in0.0 mm 0.00 in0.0 mm
10:10 PM 60.1°F15.6°C 52.5°F11.4°C 76% 3.5 mph ESE5.6 kmh ESE 5.8 mph9.3 kmh 30.20 in1022.7 mb - 0.00 in0.0 mm 0.00 in0.0 mm
10:15 PM 60.0°F15.6°C 52.4°F11.3°C 76% 3.5 mph SE5.6 kmh SE 3.5 mph5.6 kmh 30.20 in1022.7 mb - 0.00 in0.0 mm 0.00 in0.0 mm
10:20 PM 60.0°F15.6°C 52.4°F11.3°C 76% 3.5 mph E5.6 kmh E 6.9 mph11.1 kmh 30.20 in1022.7 mb - 0.00 in0.0 mm 0.00 in0.0 mm
10:25 PM 59.9°F15.5°C 52.3°F11.3°C 76% 4.6 mph E7.4 kmh E 4.6 mph7.4 kmh 30.20 in1022.7 mb - 0.00 in0.0 mm 0.00 in0.0 mm
10:30 PM 59.8°F15.4°C 52.3°F11.3°C 76% 3.5 mph ESE5.6 kmh ESE 4.6 mph7.4 kmh 30.20 in1022.7 mb - 0.00 in0.0 mm 0.00 in0.0 mm
10:35 PM 59.8°F15.4°C 52.2°F11.2°C 76% 6.9 mph ESE11.1 kmh ESE 10.4 mph16.7 kmh 30.19 in1022.4 mb - 0.00 in0.0 mm 0.00 in0.0 mm
10:40 PM 59.8°F15.4°C 52.2°F11.2°C 76% 5.8 mph E9.3 kmh E 8.1 mph13.0 kmh 30.20 in1022.7 mb - 0.00 in0.0 mm 0.00 in0.0 mm
10:45 PM 59.7°F15.4°C 52.1°F11.2°C 76% 4.6 mph ESE7.4 kmh ESE 6.9 mph11.1 kmh 30.20 in1022.7 mb - 0.00 in0.0 mm 0.00 in0.0 mm
10:50 PM 59.7°F15.4°C 52.1°F11.2°C 76% 3.5 mph ESE5.6 kmh ESE 6.9 mph11.1 kmh 30.20 in1022.7 mb - 0.00 in0.0 mm 0.00 in0.0 mm
10:55 PM 59.7°F15.4°C 52.1°F11.2°C 76% 4.6 mph E7.4 kmh E 6.9 mph11.1 kmh 30.20 in1022.7 mb - 0.00 in0.0 mm 0.00 in0.0 mm
11:00 PM 59.7°F15.4°C 52.1°F11.2°C 76% 3.5 mph ESE5.6 kmh ESE 5.8 mph9.3 kmh 30.20 in1022.7 mb - 0.00 in0.0 mm 0.00 in0.0 mm
11:05 PM 59.6°F15.3°C 52.0°F11.1°C 76% 5.8 mph E9.3 kmh E 8.1 mph13.0 kmh 30.19 in1022.4 mb - 0.00 in0.0 mm 0.00 in0.0 mm
11:10 PM 59.6°F15.3°C 52.0°F11.1°C 76% 2.3 mph E3.7 kmh E 3.5 mph5.6 kmh 30.19 in1022.4 mb - 0.00 in0.0 mm 0.00 in0.0 mm
11:15 PM 59.6°F15.3°C 52.0°F11.1°C 76% 3.5 mph ESE5.6 kmh ESE 4.6 mph7.4 kmh 30.19 in1022.4 mb - 0.00 in0.0 mm 0.00 in0.0 mm
11:20 PM 59.5°F15.3°C 51.9°F11.1°C 76% 5.8 mph ESE9.3 kmh ESE 6.9 mph11.1 kmh 30.19 in1022.4 mb - 0.00 in0.0 mm 0.00 in0.0 mm
11:25 PM 59.5°F15.3°C 51.9°F11.1°C 76% 5.8 mph E9.3 kmh E 8.1 mph13.0 kmh 30.19 in1022.4 mb - 0.00 in0.0 mm 0.00 in0.0 mm
11:30 PM 59.4°F15.2°C 51.8°F11.0°C 76% 4.6 mph ESE7.4 kmh ESE 5.8 mph9.3 kmh 30.19 in1022.4 mb - 0.00 in0.0 mm 0.00 in0.0 mm
11:35 PM 59.3°F15.2°C 51.7°F10.9°C 76% 2.3 mph ESE3.7 kmh ESE 3.5 mph5.6 kmh 30.19 in1022.4 mb - 0.00 in0.0 mm 0.00 in0.0 mm
11:40 PM 59.3°F15.2°C 51.7°F10.9°C 76% 1.2 mph E1.9 kmh E 2.3 mph3.7 kmh 30.19 in1022.4 mb - 0.00 in0.0 mm 0.00 in0.0 mm
11:45 PM 59.3°F15.2°C 51.7°F10.9°C 76% 3.5 mph ESE5.6 kmh ESE 5.8 mph9.3 kmh 30.19 in1022.4 mb - 0.00 in0.0 mm 0.00 in0.0 mm
11:50 PM 59.3°F15.2°C 51.7°F10.9°C 76% 1.2 mph E1.9 kmh E 3.5 mph5.6 kmh 30.20 in1022.7 mb - 0.00 in0.0 mm 0.00 in0.0 mm
11:55 PM 59.3°F15.2°C 51.7°F10.9°C 76% 1.2 mph ESE1.9 kmh ESE 2.3 mph3.7 kmh 30.20 in1022.7 mb - 0.00 in0.0 mm 0.00 in0.0 mm